sensor_id;sensor_type;location;lat;lon;timestamp;pressure;altitude;pressure_sealevel;temperature;humidity
49973;BME280;65693;49.798;10.968;2022-12-07T00:01:28;98061.72;;;8.81;82.75
49973;BME280;65693;49.798;10.968;2022-12-07T00:03:57;98060.34;;;8.78;82.63
49973;BME280;65693;49.798;10.968;2022-12-07T00:06:29;98056.44;;;8.81;82.59
49973;BME280;65693;49.798;10.968;2022-12-07T00:08:58;98060.09;;;8.80;82.70
49973;BME280;65693;49.798;10.968;2022-12-07T00:11:26;98069.66;;;8.81;82.55
49973;BME280;65693;49.798;10.968;2022-12-07T00:13:54;98068.84;;;8.81;82.66
49973;BME280;65693;49.798;10.968;2022-12-07T00:16:24;98054.00;;;8.79;82.66
49973;BME280;65693;49.798;10.968;2022-12-07T00:18:52;98064.56;;;8.79;82.71
49973;BME280;65693;49.798;10.968;2022-12-07T00:21:21;98061.94;;;8.79;82.90
49973;BME280;65693;49.798;10.968;2022-12-07T00:23:49;98060.09;;;8.80;82.58
49973;BME280;65693;49.798;10.968;2022-12-07T00:26:21;98057.47;;;8.80;82.85
49973;BME280;65693;49.798;10.968;2022-12-07T00:28:49;98050.56;;;8.79;82.57
49973;BME280;65693;49.798;10.968;2022-12-07T00:31:18;98057.22;;;8.82;82.78
49973;BME280;65693;49.798;10.968;2022-12-07T00:33:46;98050.56;;;8.79;82.59
49973;BME280;65693;49.798;10.968;2022-12-07T00:36:15;98048.72;;;8.79;82.60
49973;BME280;65693;49.798;10.968;2022-12-07T00:38:42;98049.53;;;8.80;82.74
49973;BME280;65693;49.798;10.968;2022-12-07T00:41:11;98043.41;;;8.79;82.54
49973;BME280;65693;49.798;10.968;2022-12-07T00:43:41;98042.63;;;8.79;82.62
49973;BME280;65693;49.798;10.968;2022-12-07T00:46:07;98037.34;;;8.79;82.71
49973;BME280;65693;49.798;10.968;2022-12-07T00:48:35;98036.56;;;8.78;82.72
49973;BME280;65693;49.798;10.968;2022-12-07T00:51:02;98040.78;;;8.79;82.68
49973;BME280;65693;49.798;10.968;2022-12-07T00:53:29;98037.34;;;8.79;82.47
49973;BME280;65693;49.798;10.968;2022-12-07T00:55:56;98034.69;;;8.79;82.36
49973;BME280;65693;49.798;10.968;2022-12-07T00:58:24;98040.00;;;8.79;82.60
49973;BME280;65693;49.798;10.968;2022-12-07T01:00:52;98031.50;;;8.77;82.81
49973;BME280;65693;49.798;10.968;2022-12-07T01:03:19;98035.72;;;8.78;82.52
49973;BME280;65693;49.798;10.968;2022-12-07T01:05:50;98037.34;;;8.79;82.63
49973;BME280;65693;49.798;10.968;2022-12-07T01:08:17;98033.09;;;8.78;82.56
49973;BME280;65693;49.798;10.968;2022-12-07T01:10:45;98033.91;;;8.78;82.71
49973;BME280;65693;49.798;10.968;2022-12-07T01:13:12;98032.06;;;8.79;82.39
49973;BME280;65693;49.798;10.968;2022-12-07T01:15:41;98032.84;;;8.79;82.60
49973;BME280;65693;49.798;10.968;2022-12-07T01:18:10;98038.63;;;8.76;82.54
49973;BME280;65693;49.798;10.968;2022-12-07T01:20:38;98028.84;;;8.77;82.62
49973;BME280;65693;49.798;10.968;2022-12-07T01:23:06;98032.53;;;8.76;82.38
49973;BME280;65693;49.798;10.968;2022-12-07T01:25:32;98040.47;;;8.76;82.43
49973;BME280;65693;49.798;10.968;2022-12-07T01:27:59;98042.09;;;8.77;82.36
49973;BME280;65693;49.798;10.968;2022-12-07T01:30:26;98043.13;;;8.76;82.46
49973;BME280;65693;49.798;10.968;2022-12-07T01:32:53;98034.94;;;8.77;82.46
49973;BME280;65693;49.798;10.968;2022-12-07T01:35:21;98043.13;;;8.76;82.42
49973;BME280;65693;49.798;10.968;2022-12-07T01:37:48;98037.81;;;8.76;82.43
49973;BME280;65693;49.798;10.968;2022-12-07T01:40:15;98041.03;;;8.78;82.42
49973;BME280;65693;49.798;10.968;2022-12-07T01:42:42;98033.56;;;8.75;82.50
49973;BME280;65693;49.798;10.968;2022-12-07T01:45:36;98026.44;;;8.75;82.59
49973;BME280;65693;49.798;10.968;2022-12-07T01:48:04;98028.03;;;8.76;82.53
49973;BME280;65693;49.798;10.968;2022-12-07T01:50:34;98031.50;;;8.77;82.52
49973;BME280;65693;49.798;10.968;2022-12-07T01:53:03;98028.03;;;8.76;82.17
49973;BME280;65693;49.798;10.968;2022-12-07T01:55:37;98027.25;;;8.76;82.24
49973;BME280;65693;49.798;10.968;2022-12-07T01:58:05;98028.84;;;8.77;82.34
49973;BME280;65693;49.798;10.968;2022-12-07T02:00:32;98014.28;;;8.74;82.14
49973;BME280;65693;49.798;10.968;2022-12-07T02:03:04;98012.41;;;8.75;82.25
49973;BME280;65693;49.798;10.968;2022-12-07T02:05:34;98004.47;;;8.75;82.27
49973;BME280;65693;49.798;10.968;2022-12-07T02:08:03;98001.84;;;8.75;82.18
49973;BME280;65693;49.798;10.968;2022-12-07T02:10:32;98002.88;;;8.74;82.27
49973;BME280;65693;49.798;10.968;2022-12-07T02:13:01;98016.09;;;8.74;82.28
49973;BME280;65693;49.798;10.968;2022-12-07T02:15:36;98012.66;;;8.73;82.35
49973;BME280;65693;49.798;10.968;2022-12-07T02:18:10;98007.38;;;8.73;82.49
49973;BME280;65693;49.798;10.968;2022-12-07T02:20:51;97992.28;;;8.74;82.25
49973;BME280;65693;49.798;10.968;2022-12-07T02:23:47;97982.06;;;8.77;82.30
49973;BME280;65693;49.798;10.968;2022-12-07T02:26:44;97978.03;;;8.75;82.10
49973;BME280;65693;49.798;10.968;2022-12-07T02:29:23;97983.31;;;8.75;82.16
49973;BME280;65693;49.798;10.968;2022-12-07T02:31:56;98003.44;;;8.76;82.27
49973;BME280;65693;49.798;10.968;2022-12-07T02:34:34;97997.34;;;8.75;82.16
49973;BME280;65693;49.798;10.968;2022-12-07T02:37:10;97998.41;;;8.74;82.30
49973;BME280;65693;49.798;10.968;2022-12-07T02:39:43;97992.53;;;8.72;82.17
49973;BME280;65693;49.798;10.968;2022-12-07T02:42:15;97999.19;;;8.75;82.11
49973;BME280;65693;49.798;10.968;2022-12-07T02:44:46;97998.66;;;8.73;81.95
49973;BME280;65693;49.798;10.968;2022-12-07T02:47:14;97999.19;;;8.75;82.05
49973;BME280;65693;49.798;10.968;2022-12-07T02:49:43;97996.00;;;8.73;82.26
49973;BME280;65693;49.798;10.968;2022-12-07T02:52:09;97993.34;;;8.73;81.97
49973;BME280;65693;49.798;10.968;2022-12-07T02:54:37;97997.59;;;8.74;82.35
49973;BME280;65693;49.798;10.968;2022-12-07T02:57:18;98004.97;;;8.72;82.22
49973;BME280;65693;49.798;10.968;2022-12-07T03:00:00;98004.16;;;8.71;82.02
49973;BME280;65693;49.798;10.968;2022-12-07T03:02:35;98002.31;;;8.72;82.23
49973;BME280;65693;49.798;10.968;2022-12-07T03:05:15;98005.50;;;8.74;82.38
49973;BME280;65693;49.798;10.968;2022-12-07T03:07:52;97994.38;;;8.72;82.20
49973;BME280;65693;49.798;10.968;2022-12-07T03:10:27;97993.34;;;8.73;82.33
49973;BME280;65693;49.798;10.968;2022-12-07T03:13:03;97985.44;;;8.73;81.97
49973;BME280;65693;49.798;10.968;2022-12-07T03:15:38;97987.00;;;8.74;82.16
49973;BME280;65693;49.798;10.968;2022-12-07T03:18:08;97990.72;;;8.73;82.14
49973;BME280;65693;49.798;10.968;2022-12-07T03:20:38;97989.09;;;8.72;82.10
49973;BME280;65693;49.798;10.968;2022-12-07T03:23:10;97997.03;;;8.72;82.16
49973;BME280;65693;49.798;10.968;2022-12-07T03:25:40;97989.09;;;8.72;82.06
49973;BME280;65693;49.798;10.968;2022-12-07T03:28:12;97984.84;;;8.71;81.85
49973;BME280;65693;49.798;10.968;2022-12-07T03:30:46;97976.91;;;8.71;81.93
49973;BME280;65693;49.798;10.968;2022-12-07T03:33:18;97982.44;;;8.69;81.79
49973;BME280;65693;49.798;10.968;2022-12-07T03:35:52;97975.31;;;8.70;81.74
49973;BME280;65693;49.798;10.968;2022-12-07T03:38:24;97967.94;;;8.72;81.74
49973;BME280;65693;49.798;10.968;2022-12-07T03:40:56;97970.84;;;8.70;82.08
49973;BME280;65693;49.798;10.968;2022-12-07T03:43:27;97970.84;;;8.70;81.92
49973;BME280;65693;49.798;10.968;2022-12-07T03:46:00;97964.19;;;8.68;81.70
49973;BME280;65693;49.798;10.968;2022-12-07T03:48:35;97962.66;;;8.72;81.77
49973;BME280;65693;49.798;10.968;2022-12-07T03:51:08;97960.25;;;8.70;81.71
49973;BME280;65693;49.798;10.968;2022-12-07T03:53:41;97960.00;;;8.72;81.54
49973;BME280;65693;49.798;10.968;2022-12-07T03:56:11;97964.72;;;8.70;81.80
49973;BME280;65693;49.798;10.968;2022-12-07T03:58:38;97961.06;;;8.71;81.63
49973;BME280;65693;49.798;10.968;2022-12-07T04:01:07;97957.84;;;8.69;81.65
49973;BME280;65693;49.798;10.968;2022-12-07T04:03:35;97957.03;;;8.68;81.55
49973;BME280;65693;49.798;10.968;2022-12-07T04:06:03;97956.25;;;8.68;81.58
49973;BME280;65693;49.798;10.968;2022-12-07T04:08:30;97958.66;;;8.69;81.74
49973;BME280;65693;49.798;10.968;2022-12-07T04:10:58;97957.03;;;8.68;81.70
49973;BME280;65693;49.798;10.968;2022-12-07T04:13:24;97951.50;;;8.70;81.79
49973;BME280;65693;49.798;10.968;2022-12-07T04:15:51;97952.56;;;8.69;81.72
49973;BME280;65693;49.798;10.968;2022-12-07T04:18:20;97961.53;;;8.68;81.67
49973;BME280;65693;49.798;10.968;2022-12-07T04:20:48;97958.66;;;8.69;81.55
49973;BME280;65693;49.798;10.968;2022-12-07T04:23:15;97954.41;;;8.68;81.54
49973;BME280;65693;49.798;10.968;2022-12-07T04:25:42;97947.28;;;8.69;81.77
49973;BME280;65693;49.798;10.968;2022-12-07T04:28:08;97953.34;;;8.69;81.56
49973;BME280;65693;49.798;10.968;2022-12-07T04:30:35;97954.16;;;8.70;81.61
49973;BME280;65693;49.798;10.968;2022-12-07T04:33:02;97949.09;;;8.68;81.50
49973;BME280;65693;49.798;10.968;2022-12-07T04:35:32;97953.59;;;8.68;81.54
49973;BME280;65693;49.798;10.968;2022-12-07T04:37:59;97960.97;;;8.66;81.45
49973;BME280;65693;49.798;10.968;2022-12-07T04:40:27;97957.28;;;8.67;81.70
49973;BME280;65693;49.798;10.968;2022-12-07T04:42:54;97960.72;;;8.67;81.63
49973;BME280;65693;49.798;10.968;2022-12-07T04:45:21;97961.53;;;8.68;81.40
49973;BME280;65693;49.798;10.968;2022-12-07T04:47:48;97967.63;;;8.68;81.67
49973;BME280;65693;49.798;10.968;2022-12-07T04:50:15;97956.25;;;8.68;81.56
49973;BME280;65693;49.798;10.968;2022-12-07T04:52:43;97950.97;;;8.68;81.66
49973;BME280;65693;49.798;10.968;2022-12-07T04:55:11;97954.09;;;8.65;81.56
49973;BME280;65693;49.798;10.968;2022-12-07T04:57:37;97946.94;;;8.65;81.48
49973;BME280;65693;49.798;10.968;2022-12-07T05:00:05;97951.44;;;8.65;81.58
49973;BME280;65693;49.798;10.968;2022-12-07T05:02:33;97938.78;;;8.67;81.48
49973;BME280;65693;49.798;10.968;2022-12-07T05:05:00;97950.38;;;8.66;81.53
49973;BME280;65693;49.798;10.968;2022-12-07T05:07:27;97955.66;;;8.66;81.44
49973;BME280;65693;49.798;10.968;2022-12-07T05:09:56;97953.34;;;8.69;81.55
49973;BME280;65693;49.798;10.968;2022-12-07T05:12:25;97952.56;;;8.69;81.53
49973;BME280;65693;49.798;10.968;2022-12-07T05:14:52;97950.13;;;8.67;81.65
49973;BME280;65693;49.798;10.968;2022-12-07T05:17:19;97947.75;;;8.66;81.34
49973;BME280;65693;49.798;10.968;2022-12-07T05:19:47;97946.16;;;8.65;81.42
49973;BME280;65693;49.798;10.968;2022-12-07T05:22:14;97948.81;;;8.65;81.43
49973;BME280;65693;49.798;10.968;2022-12-07T05:24:41;97953.03;;;8.66;81.54
49973;BME280;65693;49.798;10.968;2022-12-07T05:27:10;97946.72;;;8.67;81.54
49973;BME280;65693;49.798;10.968;2022-12-07T05:29:37;97958.31;;;8.66;81.55
49973;BME280;65693;49.798;10.968;2022-12-07T05:32:04;97956.25;;;8.68;81.44
49973;BME280;65693;49.798;10.968;2022-12-07T05:34:31;97953.03;;;8.66;81.43
49973;BME280;65693;49.798;10.968;2022-12-07T05:36:59;97955.91;;;8.64;81.53
49973;BME280;65693;49.798;10.968;2022-12-07T05:39:26;97942.06;;;8.57;80.93
49973;BME280;65693;49.798;10.968;2022-12-07T05:41:53;97938.78;;;8.67;79.69
49973;BME280;65693;49.798;10.968;2022-12-07T05:44:40;97926.03;;;8.64;79.50
49973;BME280;65693;49.798;10.968;2022-12-07T05:47:07;97927.88;;;8.63;79.39
49973;BME280;65693;49.798;10.968;2022-12-07T05:49:34;97930.75;;;8.61;79.31
49973;BME280;65693;49.798;10.968;2022-12-07T05:52:01;97929.00;;;8.67;79.54
49973;BME280;65693;49.798;10.968;2022-12-07T05:54:27;97930.06;;;8.66;79.49
49973;BME280;65693;49.798;10.968;2022-12-07T05:56:55;97932.75;;;8.71;79.49
49973;BME280;65693;49.798;10.968;2022-12-07T05:59:23;97933.00;;;8.70;79.44
49973;BME280;65693;49.798;10.968;2022-12-07T06:01:51;97930.09;;;8.71;79.65
49973;BME280;65693;49.798;10.968;2022-12-07T06:04:18;97929.91;;;8.73;79.77
49973;BME280;65693;49.798;10.968;2022-12-07T06:06:45;97934.59;;;8.71;79.75
49973;BME280;65693;49.798;10.968;2022-12-07T06:09:12;97932.53;;;8.73;79.77
49973;BME280;65693;49.798;10.968;2022-12-07T06:11:39;97928.84;;;8.74;79.70
49973;BME280;65693;49.798;10.968;2022-12-07T06:14:23;97924.81;;;8.71;79.80
49973;BME280;65693;49.798;10.968;2022-12-07T06:16:51;97927.00;;;8.74;79.79
49973;BME280;65693;49.798;10.968;2022-12-07T06:19:19;97928.03;;;8.73;80.16
49973;BME280;65693;49.798;10.968;2022-12-07T06:21:46;97924.13;;;8.76;79.82
49973;BME280;65693;49.798;10.968;2022-12-07T06:24:13;97920.91;;;8.74;79.89
49973;BME280;65693;49.798;10.968;2022-12-07T06:26:40;97923.00;;;8.72;80.14
49973;BME280;65693;49.798;10.968;2022-12-07T06:29:09;97919.06;;;8.74;79.89
49973;BME280;65693;49.798;10.968;2022-12-07T06:31:37;97914.81;;;8.73;80.04
49973;BME280;65693;49.798;10.968;2022-12-07T06:34:09;97928.03;;;8.73;80.19
49973;BME280;65693;49.798;10.968;2022-12-07T06:36:36;97924.63;;;8.73;79.93
49973;BME280;65693;49.798;10.968;2022-12-07T06:39:03;97925.66;;;8.72;80.21
49973;BME280;65693;49.798;10.968;2022-12-07T06:41:31;97928.84;;;8.74;80.26
49973;BME280;65693;49.798;10.968;2022-12-07T06:43:58;97927.25;;;8.73;80.17
49973;BME280;65693;49.798;10.968;2022-12-07T06:46:25;97927.25;;;8.73;79.98
49973;BME280;65693;49.798;10.968;2022-12-07T06:48:53;97927.72;;;8.70;80.29
49973;BME280;65693;49.798;10.968;2022-12-07T06:51:22;97928.53;;;8.70;80.05
49973;BME280;65693;49.798;10.968;2022-12-07T06:53:50;97933.00;;;8.70;80.05
49973;BME280;65693;49.798;10.968;2022-12-07T06:56:18;97933.56;;;8.72;80.23
49973;BME280;65693;49.798;10.968;2022-12-07T06:58:44;97930.09;;;8.71;80.21
49973;BME280;65693;49.798;10.968;2022-12-07T07:01:12;97937.00;;;8.72;80.19
49973;BME280;65693;49.798;10.968;2022-12-07T07:03:40;97938.28;;;8.70;80.32
49973;BME280;65693;49.798;10.968;2022-12-07T07:06:07;97936.72;;;8.69;80.35
49973;BME280;65693;49.798;10.968;2022-12-07T07:08:36;97942.28;;;8.72;80.40
49973;BME280;65693;49.798;10.968;2022-12-07T07:11:05;97938.88;;;8.72;80.14
49973;BME280;65693;49.798;10.968;2022-12-07T07:13:31;97938.88;;;8.72;80.35
49973;BME280;65693;49.798;10.968;2022-12-07T07:15:58;97939.41;;;8.74;80.28
49973;BME280;65693;49.798;10.968;2022-12-07T07:18:25;97936.91;;;8.67;79.69
49973;BME280;65693;49.798;10.968;2022-12-07T07:20:52;97930.50;;;8.63;78.78
49973;BME280;65693;49.798;10.968;2022-12-07T07:23:19;97921.78;;;8.63;78.26
49973;BME280;65693;49.798;10.968;2022-12-07T07:25:48;97923.88;;;8.60;78.30
49973;BME280;65693;49.798;10.968;2022-12-07T07:28:16;97926.44;;;8.55;77.92
49973;BME280;65693;49.798;10.968;2022-12-07T07:30:43;97921.47;;;8.59;78.33
49973;BME280;65693;49.798;10.968;2022-12-07T07:33:10;97919.38;;;8.61;78.63
49973;BME280;65693;49.798;10.968;2022-12-07T07:35:37;97925.47;;;8.61;78.71
49973;BME280;65693;49.798;10.968;2022-12-07T07:38:05;97930.28;;;8.65;78.72
49973;BME280;65693;49.798;10.968;2022-12-07T07:40:34;97926.34;;;8.67;79.01
49973;BME280;65693;49.798;10.968;2022-12-07T07:43:02;97930.84;;;8.67;79.03
49973;BME280;65693;49.798;10.968;2022-12-07T07:45:28;97927.41;;;8.66;78.94
49973;BME280;65693;49.798;10.968;2022-12-07T07:47:56;97932.44;;;8.68;79.04
49973;BME280;65693;49.798;10.968;2022-12-07T07:50:24;97928.19;;;8.67;79.13
49973;BME280;65693;49.798;10.968;2022-12-07T07:52:51;97926.59;;;8.66;79.13
49973;BME280;65693;49.798;10.968;2022-12-07T07:55:18;97931.88;;;8.66;79.37
49973;BME280;65693;49.798;10.968;2022-12-07T07:57:45;97931.88;;;8.66;79.08
49973;BME280;65693;49.798;10.968;2022-12-07T08:00:16;97933.50;;;8.67;79.34
49973;BME280;65693;49.798;10.968;2022-12-07T08:02:43;97937.75;;;8.68;79.25
49973;BME280;65693;49.798;10.968;2022-12-07T08:05:12;97930.84;;;8.67;79.27
49973;BME280;65693;49.798;10.968;2022-12-07T08:07:39;97941.41;;;8.67;79.48
49973;BME280;65693;49.798;10.968;2022-12-07T08:10:09;97942.78;;;8.69;79.27
49973;BME280;65693;49.798;10.968;2022-12-07T08:12:39;97947.50;;;8.67;79.43
49973;BME280;65693;49.798;10.968;2022-12-07T08:15:30;97957.03;;;8.68;79.61
49973;BME280;65693;49.798;10.968;2022-12-07T08:17:57;97955.22;;;8.69;79.71
49973;BME280;65693;49.798;10.968;2022-12-07T08:20:23;97952.78;;;8.67;79.57
49973;BME280;65693;49.798;10.968;2022-12-07T08:22:51;97952.56;;;8.69;79.56
49973;BME280;65693;49.798;10.968;2022-12-07T08:25:18;97953.34;;;8.69;79.44
49973;BME280;65693;49.798;10.968;2022-12-07T08:27:46;97952.31;;;8.70;79.88
49973;BME280;65693;49.798;10.968;2022-12-07T08:30:14;97952.56;;;8.69;79.74
49973;BME280;65693;49.798;10.968;2022-12-07T08:32:44;97956.25;;;8.68;79.79
49973;BME280;65693;49.798;10.968;2022-12-07T08:35:11;97954.41;;;8.68;79.55
49973;BME280;65693;49.798;10.968;2022-12-07T08:37:38;97952.56;;;8.69;79.56
49973;BME280;65693;49.798;10.968;2022-12-07T08:40:09;97958.41;;;8.71;79.59
49973;BME280;65693;49.798;10.968;2022-12-07T08:42:40;97958.66;;;8.69;79.66
49973;BME280;65693;49.798;10.968;2022-12-07T08:45:12;97962.66;;;8.72;79.80
49973;BME280;65693;49.798;10.968;2022-12-07T08:47:40;97955.75;;;8.71;79.83
49973;BME280;65693;49.798;10.968;2022-12-07T08:50:11;97954.41;;;8.68;79.81
49973;BME280;65693;49.798;10.968;2022-12-07T08:52:40;97952.56;;;8.69;79.72
49973;BME280;65693;49.798;10.968;2022-12-07T08:55:09;97957.84;;;8.69;80.01
49973;BME280;65693;49.798;10.968;2022-12-07T08:57:38;97964.72;;;8.70;79.94
49973;BME280;65693;49.798;10.968;2022-12-07T09:00:07;97957.84;;;8.69;79.91
49973;BME280;65693;49.798;10.968;2022-12-07T09:02:34;97952.56;;;8.69;80.04
49973;BME280;65693;49.798;10.968;2022-12-07T09:05:01;97957.84;;;8.69;79.93
49973;BME280;65693;49.798;10.968;2022-12-07T09:07:30;97963.16;;;8.69;79.95
49973;BME280;65693;49.798;10.968;2022-12-07T09:09:58;97963.16;;;8.69;80.23
49973;BME280;65693;49.798;10.968;2022-12-07T09:12:25;97962.31;;;8.68;79.94
49973;BME280;65693;49.798;10.968;2022-12-07T09:14:51;97963.94;;;8.69;79.91
49973;BME280;65693;49.798;10.968;2022-12-07T09:17:19;97962.09;;;8.70;80.01
49973;BME280;65693;49.798;10.968;2022-12-07T09:19:47;97971.06;;;8.69;79.87
49973;BME280;65693;49.798;10.968;2022-12-07T09:22:15;97974.28;;;8.71;80.06
49973;BME280;65693;49.798;10.968;2022-12-07T09:24:45;97977.94;;;8.70;80.01
49973;BME280;65693;49.798;10.968;2022-12-07T09:27:12;97975.31;;;8.70;79.97
49973;BME280;65693;49.798;10.968;2022-12-07T09:29:41;97978.19;;;8.68;80.23
49973;BME280;65693;49.798;10.968;2022-12-07T09:32:09;97971.06;;;8.69;80.02
49973;BME280;65693;49.798;10.968;2022-12-07T09:34:36;97970.00;;;8.70;80.29
49973;BME280;65693;49.798;10.968;2022-12-07T09:37:03;97974.28;;;8.71;80.20
49973;BME280;65693;49.798;10.968;2022-12-07T09:39:31;97981.97;;;8.72;80.16
49973;BME280;65693;49.798;10.968;2022-12-07T09:42:03;97982.19;;;8.71;79.93
49973;BME280;65693;49.798;10.968;2022-12-07T09:44:31;97968.44;;;8.69;80.01
49973;BME280;65693;49.798;10.968;2022-12-07T09:46:59;97966.81;;;8.68;80.10
49973;BME280;65693;49.798;10.968;2022-12-07T09:49:28;97968.44;;;8.69;80.24
49973;BME280;65693;49.798;10.968;2022-12-07T09:52:03;97968.97;;;8.71;80.09
49973;BME280;65693;49.798;10.968;2022-12-07T09:54:46;97970.00;;;8.70;79.99
49973;BME280;65693;49.798;10.968;2022-12-07T09:57:17;97970.00;;;8.70;80.29
49973;BME280;65693;49.798;10.968;2022-12-07T09:59:43;97964.72;;;8.70;80.41
49973;BME280;65693;49.798;10.968;2022-12-07T10:02:25;97963.22;;;8.74;80.40
49973;BME280;65693;49.798;10.968;2022-12-07T10:04:54;97969.78;;;8.71;80.14
49973;BME280;65693;49.798;10.968;2022-12-07T10:07:21;97963.16;;;8.69;80.32
49973;BME280;65693;49.798;10.968;2022-12-07T10:09:49;97966.00;;;8.67;80.19
49973;BME280;65693;49.798;10.968;2022-12-07T10:12:17;97960.50;;;8.69;80.37
49973;BME280;65693;49.798;10.968;2022-12-07T10:14:54;97969.22;;;8.69;80.57
49973;BME280;65693;49.798;10.968;2022-12-07T10:17:29;97962.31;;;8.68;80.56
49973;BME280;65693;49.798;10.968;2022-12-07T10:20:13;97954.97;;;8.70;80.58
49973;BME280;65693;49.798;10.968;2022-12-07T10:22:54;97964.47;;;8.71;80.58
49973;BME280;65693;49.798;10.968;2022-12-07T10:25:22;97960.25;;;8.70;80.58
49973;BME280;65693;49.798;10.968;2022-12-07T10:27:59;97957.38;;;8.72;80.46
49973;BME280;65693;49.798;10.968;2022-12-07T10:30:28;97959.69;;;8.68;80.27
49973;BME280;65693;49.798;10.968;2022-12-07T10:32:54;97966.34;;;8.71;80.58
49973;BME280;65693;49.798;10.968;2022-12-07T10:35:24;97960.50;;;8.69;80.53
49973;BME280;65693;49.798;10.968;2022-12-07T10:37:52;97955.75;;;8.71;80.46
49973;BME280;65693;49.798;10.968;2022-12-07T10:40:27;97953.13;;;8.71;80.48
49973;BME280;65693;49.798;10.968;2022-12-07T10:43:18;97954.97;;;8.70;80.61
49973;BME280;65693;49.798;10.968;2022-12-07T10:46:09;97951.25;;;8.71;80.43
49973;BME280;65693;49.798;10.968;2022-12-07T10:48:47;97949.69;;;8.70;80.52
49973;BME280;65693;49.798;10.968;2022-12-07T10:51:24;97950.47;;;8.71;80.70
49973;BME280;65693;49.798;10.968;2022-12-07T10:54:04;97949.44;;;8.72;80.51
49973;BME280;65693;49.798;10.968;2022-12-07T10:56:52;97939.09;;;8.70;80.56
49973;BME280;65693;49.798;10.968;2022-12-07T10:59:36;97953.13;;;8.71;80.46
49973;BME280;65693;49.798;10.968;2022-12-07T11:02:21;97953.69;;;8.73;80.37
49973;BME280;65693;49.798;10.968;2022-12-07T11:04:56;97940.47;;;8.73;80.40
49973;BME280;65693;49.798;10.968;2022-12-07T11:07:37;97949.44;;;8.72;80.61
49973;BME280;65693;49.798;10.968;2022-12-07T11:10:11;97937.00;;;8.72;80.60
49973;BME280;65693;49.798;10.968;2022-12-07T11:12:51;97927.00;;;8.74;80.60
49973;BME280;65693;49.798;10.968;2022-12-07T11:15:26;97930.69;;;8.73;80.54
49973;BME280;65693;49.798;10.968;2022-12-07T11:18:01;97927.25;;;8.73;80.62
49973;BME280;65693;49.798;10.968;2022-12-07T11:20:40;97923.53;;;8.74;80.35
49973;BME280;65693;49.798;10.968;2022-12-07T11:23:34;97914.03;;;8.73;80.33
49973;BME280;65693;49.798;10.968;2022-12-07T11:26:12;97915.06;;;8.72;80.45
49973;BME280;65693;49.798;10.968;2022-12-07T11:28:58;97919.31;;;8.73;80.69
49973;BME280;65693;49.798;10.968;2022-12-07T11:31:36;97915.38;;;8.75;80.38
49973;BME280;65693;49.798;10.968;2022-12-07T11:34:09;97916.69;;;8.73;80.61
49973;BME280;65693;49.798;10.968;2022-12-07T11:36:43;97910.91;;;8.76;80.61
49973;BME280;65693;49.798;10.968;2022-12-07T11:39:19;97907.13;;;8.72;80.46
49973;BME280;65693;49.798;10.968;2022-12-07T11:41:52;97905.84;;;8.74;80.41
49973;BME280;65693;49.798;10.968;2022-12-07T11:44:29;97902.41;;;8.74;80.33
49973;BME280;65693;49.798;10.968;2022-12-07T11:47:06;97902.41;;;8.74;80.65
49973;BME280;65693;49.798;10.968;2022-12-07T11:49:41;97906.41;;;8.76;80.42
49973;BME280;65693;49.798;10.968;2022-12-07T11:52:18;97894.00;;;8.77;80.51
49973;BME280;65693;49.798;10.968;2022-12-07T11:54:47;97902.16;;;8.75;80.52
49973;BME280;65693;49.798;10.968;2022-12-07T11:57:20;97894.22;;;8.75;80.55
49973;BME280;65693;49.798;10.968;2022-12-07T11:59:52;97898.72;;;8.75;80.44
49973;BME280;65693;49.798;10.968;2022-12-07T12:02:29;97884.69;;;8.74;80.33
49973;BME280;65693;49.798;10.968;2022-12-07T12:05:12;97885.50;;;8.75;80.38
49973;BME280;65693;49.798;10.968;2022-12-07T12:07:42;97883.41;;;8.77;80.54
49973;BME280;65693;49.798;10.968;2022-12-07T12:10:18;97874.13;;;8.74;80.47
49973;BME280;65693;49.798;10.968;2022-12-07T12:13:07;97883.63;;;8.75;80.50
49973;BME280;65693;49.798;10.968;2022-12-07T12:15:49;97870.41;;;8.75;80.48
49973;BME280;65693;49.798;10.968;2022-12-07T12:18:48;97873.88;;;8.76;80.41
49973;BME280;65693;49.798;10.968;2022-12-07T12:21:22;97864.91;;;8.77;80.64
49973;BME280;65693;49.798;10.968;2022-12-07T12:23:57;97865.94;;;8.76;80.40
49973;BME280;65693;49.798;10.968;2022-12-07T12:26:27;97870.66;;;8.74;80.76
49973;BME280;65693;49.798;10.968;2022-12-07T12:28:57;97868.03;;;8.74;80.69
49973;BME280;65693;49.798;10.968;2022-12-07T12:31:37;97875.69;;;8.75;80.61
49973;BME280;65693;49.798;10.968;2022-12-07T12:34:29;97871.00;;;8.77;80.84
49973;BME280;65693;49.798;10.968;2022-12-07T12:36:57;97877.66;;;8.80;80.50
49973;BME280;65693;49.798;10.968;2022-12-07T12:39:24;97876.28;;;8.77;80.66
49973;BME280;65693;49.798;10.968;2022-12-07T12:41:54;97871.00;;;8.77;80.43
49973;BME280;65693;49.798;10.968;2022-12-07T12:44:41;97867.78;;;8.75;80.38
49973;BME280;65693;49.798;10.968;2022-12-07T12:50:33;97873.06;;;8.75;80.83
49973;BME280;65693;49.798;10.968;2022-12-07T12:53:12;97863.06;;;8.77;80.93
49973;BME280;65693;49.798;10.968;2022-12-07T12:56:00;97860.41;;;8.77;80.62
49973;BME280;65693;49.798;10.968;2022-12-07T12:58:41;97861.19;;;8.78;80.58
49973;BME280;65693;49.798;10.968;2022-12-07T13:01:32;97854.34;;;8.77;80.64
49973;BME280;65693;49.798;10.968;2022-12-07T13:04:17;97857.53;;;8.79;80.79
49973;BME280;65693;49.798;10.968;2022-12-07T13:06:46;97855.91;;;8.78;80.80
49973;BME280;65693;49.798;10.968;2022-12-07T13:09:19;97859.13;;;8.80;80.57
49973;BME280;65693;49.798;10.968;2022-12-07T13:11:48;97856.47;;;8.80;80.99
49973;BME280;65693;49.798;10.968;2022-12-07T13:14:43;97857.03;;;8.82;80.83
49973;BME280;65693;49.798;10.968;2022-12-07T13:20:46;97843.03;;;8.82;80.67
49973;BME280;65693;49.798;10.968;2022-12-07T13:23:18;97848.31;;;8.82;80.66
49973;BME280;65693;49.798;10.968;2022-12-07T13:26:09;97841.16;;;8.82;80.50
49973;BME280;65693;49.798;10.968;2022-12-07T13:28:41;97837.72;;;8.82;80.39